createdAt,value
2023-04-16T00:04:23.225Z,6.6
2023-04-16T00:19:23.047Z,6.7
2023-04-16T00:34:22.973Z,6.7
2023-04-16T00:49:22.984Z,6.7
2023-04-16T01:04:23.001Z,6.7
2023-04-16T01:19:22.973Z,6.9
2023-04-16T01:34:22.950Z,7.3
2023-04-16T01:49:22.893Z,7.5
2023-04-16T02:04:22.886Z,7.5
2023-04-16T02:19:22.928Z,7.4
2023-04-16T02:34:22.891Z,7.3
2023-04-16T02:49:22.848Z,7.1
2023-04-16T03:04:22.947Z,7.1
2023-04-16T03:19:22.872Z,6.9
2023-04-16T03:34:22.822Z,7
2023-04-16T03:49:22.831Z,7.1
2023-04-16T04:04:22.849Z,7.3
2023-04-16T04:19:22.788Z,7.5
2023-04-16T04:34:22.739Z,7.6
2023-04-16T04:49:22.764Z,7.6
2023-04-16T05:04:22.721Z,7.6
2023-04-16T05:19:22.772Z,7.6
2023-04-16T05:34:22.705Z,7.5
2023-04-16T05:49:22.725Z,7.5
2023-04-16T06:04:22.677Z,7.6
2023-04-16T06:19:22.694Z,7.7
2023-04-16T06:34:22.672Z,7.8
2023-04-16T06:49:22.679Z,8
2023-04-16T07:04:22.678Z,8.4
2023-04-16T07:19:22.650Z,9
2023-04-16T07:34:22.592Z,9.1
2023-04-16T07:49:22.597Z,9.2
2023-04-16T08:04:22.739Z,9.7
2023-04-16T08:19:22.583Z,9.6
2023-04-16T08:34:22.533Z,9.9
2023-04-16T08:49:22.526Z,10.8
2023-04-16T09:04:22.680Z,12
2023-04-16T09:19:22.518Z,12.2
2023-04-16T09:34:22.451Z,11.8
2023-04-16T09:49:22.489Z,11.1
2023-04-16T10:04:22.450Z,10.8
2023-04-16T10:19:22.457Z,10.6
2023-04-16T10:34:22.404Z,10.3
2023-04-16T10:49:22.419Z,10.2
2023-04-16T11:04:22.584Z,10.2
2023-04-16T11:19:22.376Z,10.3
2023-04-16T11:34:22.358Z,10.3
2023-04-16T11:49:22.317Z,10.6
2023-04-16T12:04:22.349Z,10.6
2023-04-16T12:19:22.287Z,10.6
2023-04-16T12:34:22.255Z,10.7
2023-04-16T12:49:22.263Z,10.7
2023-04-16T13:04:25.531Z,10.8
2023-04-16T13:19:22.229Z,11.1
2023-04-16T13:34:22.178Z,11.2
2023-04-16T13:49:22.193Z,11
2023-04-16T14:04:22.301Z,11
2023-04-16T14:19:22.157Z,11
2023-04-16T14:34:22.077Z,10.9
2023-04-16T14:49:22.142Z,10.5
2023-04-16T15:04:22.163Z,10.5
2023-04-16T15:19:22.045Z,10.5
2023-04-16T15:34:22.017Z,10.5
2023-04-16T15:49:22.046Z,10.4
2023-04-16T16:04:22.102Z,10.3
2023-04-16T16:19:21.996Z,10
2023-04-16T16:34:21.973Z,9.7
2023-04-16T16:49:21.962Z,9.6
2023-04-16T17:04:22.028Z,9.4
2023-04-16T17:19:21.933Z,9.3
2023-04-16T17:34:21.890Z,9.2
2023-04-16T17:49:21.911Z,9.1
2023-04-16T18:04:21.949Z,9
2023-04-16T18:19:21.864Z,8.9
2023-04-16T18:34:21.848Z,8.8
2023-04-16T18:49:21.856Z,8.7
2023-04-16T19:04:21.844Z,8.7
2023-04-16T19:19:21.825Z,8.7
2023-04-16T19:34:21.754Z,8.6
2023-04-16T19:49:21.790Z,8.5
2023-04-16T20:04:21.757Z,8.5
2023-04-16T20:19:21.976Z,8.5
2023-04-16T20:34:21.702Z,8.4
2023-04-16T20:49:21.708Z,8.6
2023-04-16T21:04:21.799Z,8.6
2023-04-16T21:19:21.663Z,8.6
2023-04-16T21:34:21.622Z,8.6
2023-04-16T21:49:21.660Z,8.6
2023-04-16T22:04:21.564Z,8.6
2023-04-16T22:19:21.586Z,8.5
2023-04-16T22:34:21.580Z,8.5
2023-04-16T22:49:21.578Z,8.4
2023-04-16T23:04:21.528Z,8.4
2023-04-16T23:19:21.553Z,8.4
2023-04-16T23:34:21.482Z,8.4
2023-04-16T23:49:21.655Z,8.3
